Main page
METAR-TAF:

METAR-TAF

Airports :

Larissa, Greece

latitude: 39-38N, longitude: 022-25E, elevation: 73 m

METAR: missing

Time: 08:31 (05:31 UTC)

Forecast

The report was made 3 hours and 31 minutes ago, at 02:00 UTC
Forecast valid from 21 at 03 UTC to 21 at 12 UTC
Wind 3 kt from variable directions
Visibility 10 km or more
Scattered clouds at a height of 2500 ft
Broken clouds at a height of 8000 ft
Probability 30% :
Temporary
from 21 at 03 UTC to 21 at 09 UTC
Visibility: 6000 m
rain
Becoming
from 21 at 07 UTC to 21 at 09 UTC
Wind 12 kt from the East

TAF: LGLR 210200Z 2103/2112 VRB03KT 9999 SCT025 BKN080 PROB30 TEMPO 2103/2109 6000 RA BECMG 2107/2109 08012KT

Weather observations and forecasts of more than 4000 airports (METAR and TAF reports).

The available stations are represented by yellow and red dots on the map.

Hover mouse over dot to see the name of the station.

Then click to see weather observations and forecasts.

To change the map : click on the green buttons with a black cross to zoom in, on the green button with a dash to zoom out, or on the green arrows for adjacent maps.


METAR-TAF: